Aérodrome :
LOGIN :

S'inscrire | Disclaimer

   EN    FR    IT 

 










Légende :    VFR   VFR Marginal   IFR   IFR Intensif   IFR Très Intensif
Visi : 
Plafond : 
>= 8 km
>= 3000ft
5 à 8 km
1000 à 3000 ft
1500m à 5 km
500 à 1000 ft
800 à 1500m
200 à 500 ft
< 800m
< 200 ft
Symboles :   Orages  Brouillard  Fortes neiges  Fortes précipitations  Vent > 20 kt
SIGMETs :   Divers  Orages  Givrage  Turbulence  Onde Orograph.  Cendres Volcan.







- Altitude de l'aérodrome : 1682 ft
- Code IATA : VIT


LEVT - Vitoria Gasteiz

DERNIER METAR :
  • 130830Z 23005KT 3000 RA BKN014 BKN030 07/06 Q1006

METARs EXPIRÉS :
  • 130819Z 23004KT 3000 RA BKN014 OVC030 08/07 Q1006
  • 130800Z 22003KT 200V280 9999 SCT015 BKN030 08/07 Q1006
  • 130730Z 00000KT 9999 FEW015 BKN030 09/06 Q1006
  • 130700Z VRB02KT 9999 SCT020 BKN030 09/06 Q1006
  • 130630Z 19008KT 160V230 9999 SCT020 BKN030 09/07 Q1006
  • 130600Z 20007KT 160V220 9999 SCT020 BKN030 09/07 Q1006

TAF TAF LEVT
Valide du 13 à 06h jusqu'au 14 à 06h UTC


130500Z 1306/1406 22009KT 9999 SCT020 BKN030 TX09/1312Z TN02/1406Z
PROB40
TEMPO 1306/1308 22015G25KT
BECMG 1306/1309 31010KT
TEMPO 1312/1324 31015G25KT
TEMPO 1306/1312 3000 RA BKN014
Pas de NOTAMs connus pour ce terrain.
4 SIGMETs publiés pour la FIR Madrid (LECM) :
 
Turbulence forte
LECM SIGMET 4 VALID 130800/131200 LEVA
LECM MADRID FIR/UIR SEV TURB FCST ENTIRE FIR SFC/FL400 MOV E NC=
Turbulence forte
LECM SIGMET 3 VALID 130540/130800 LEVA
LECM MADRID UIR SEV TURB OBS AT 0540Z WI N4340 W00211 - N4247 W00209 - N4243 W00113 - N4309 W00124 - N4340 W00211 FL360/380 STNR NC=
Turbulence forte
LECM SIGMET 2 VALID 130600/131000 LEVA
LECM MADRID FIR/UIR SEV TURB FCST W OF LINE N3757 W00501 - N3554 W00417 FL240/340 MOV E NC=
Turbulence forte
LECM SIGMET 1 VALID 130400/130800 LEVA
LECM MADRID FIR SEV TURB FCST W OF LINE N4435 W006 - N3551 W00506 SFC/FL220 MOV E NC=



MET'MAP, la Météo Aéronautique d'un coup d'oeil ! - Copyright ORBIFLY Décembre 2007 - Disclaimer

ORBIFLY MET'MAP TEAM :

Programmation & Développement : Alexandra Zaïnal
Conception & Développement : Baudouin d'Aumeries
Co-Programmation & Développement : Marc-Olivier Méhu
Soutien technique & logistique : Manuel Goepfert

Contact : metmap@orbifly.com




SOURCES & CREDITS :

   NOAA